Time;durP1;ratioP1;P1;durP2;ratioP2;P2;SDS_P1;SDS_P2;PMS_P1;PMS_P2;Temp;Humidity;BMP_temperature;BMP_pressure;BME280_temperature;BME280_humidity;BME280_pressure;Samples;Min_cycle;Max_cycle;Signal;HPM_P1;HPM_P2
2022/12/11 00:02:08;;;;;;;1.70;1.50;;;1.40;98.20;;;;;;5027855;28;20482;-74
2022/12/11 00:04:35;;;;;;;1.70;1.60;;;1.40;98.20;;;;;;5025463;28;20471;-73
2022/12/11 00:07:05;;;;;;;1.80;1.70;;;1.40;98.20;;;;;;5026302;28;20487;-74
2022/12/11 00:09:31;;;;;;;1.70;1.50;;;1.40;98.20;;;;;;5026419;28;20494;-74
2022/12/11 00:11:58;;;;;;;1.70;1.50;;;1.40;98.20;;;;;;5030897;28;20486;-75
2022/12/11 00:14:25;;;;;;;1.67;1.50;;;1.40;98.20;;;;;;5034186;28;20479;-74
2022/12/11 00:16:52;;;;;;;1.60;1.50;;;1.40;98.20;;;;;;5029536;28;20488;-74
2022/12/11 00:19:20;;;;;;;1.70;1.60;;;1.40;98.20;;;;;;5034018;28;20476;-74
2022/12/11 00:21:47;;;;;;;1.70;1.50;;;1.40;98.20;;;;;;5029656;28;20485;-74
2022/12/11 00:24:13;;;;;;;1.70;1.50;;;1.40;98.20;;;;;;5034081;28;20738;-75
2022/12/11 00:26:40;;;;;;;1.63;1.50;;;1.40;98.20;;;;;;5022087;28;20483;-74
2022/12/11 00:29:13;;;;;;;1.67;1.50;;;1.40;98.20;;;;;;5030647;28;21056;-75
2022/12/11 00:31:39;;;;;;;1.70;1.53;;;1.40;98.20;;;;;;5029944;28;20478;-74
2022/12/11 00:34:06;;;;;;;1.70;1.60;;;1.40;98.20;;;;;;5035877;28;20916;-74
2022/12/11 00:36:36;;;;;;;1.70;1.60;;;1.40;98.20;;;;;;5027892;28;20481;-75
2022/12/11 00:39:03;;;;;;;1.70;1.50;;;1.40;98.20;;;;;;5035430;28;20557;-73
2022/12/11 00:41:30;;;;;;;2.03;1.90;;;1.40;98.20;;;;;;5028258;28;20473;-74
2022/12/11 00:43:57;;;;;;;3.70;3.40;;;1.40;98.20;;;;;;5037115;28;20455;-74
2022/12/11 00:46:24;;;;;;;1.70;1.50;;;1.40;98.20;;;;;;5025367;28;20485;-74
2022/12/11 00:48:52;;;;;;;1.63;1.40;;;1.40;98.20;;;;;;5037605;28;20493;-74
2022/12/11 00:51:19;;;;;;;1.77;1.63;;;1.40;98.20;;;;;;5020112;28;20478;-74
2022/12/11 00:53:47;;;;;;;1.70;1.53;;;1.40;98.20;;;;;;5027919;28;20821;-74
2022/12/11 00:56:17;;;;;;;1.70;1.50;;;1.40;98.20;;;;;;5003009;28;20497;-75
2022/12/11 00:58:44;;;;;;;1.70;1.60;;;1.40;98.20;;;;;;5023718;28;20494;-75
2022/12/11 01:01:16;;;;;;;1.70;1.50;;;1.40;98.20;;;;;;5005083;28;20482;-74
2022/12/11 01:03:43;;;;;;;1.67;1.50;;;1.40;98.20;;;;;;5021222;28;20862;-74
2022/12/11 01:06:15;;;;;;;1.67;1.50;;;1.40;98.20;;;;;;5002863;28;20467;-74
2022/12/11 01:08:42;;;;;;;1.70;1.60;;;1.40;98.20;;;;;;5022382;28;20853;-75
2022/12/11 01:11:12;;;;;;;1.70;1.60;;;1.40;98.20;;;;;;5004013;28;20479;-74
2022/12/11 01:13:40;;;;;;;1.70;1.60;;;1.40;98.20;;;;;;5022175;28;20918;-74
2022/12/11 01:16:08;;;;;;;2.00;1.80;;;1.40;98.20;;;;;;5003165;28;20484;-73
2022/12/11 01:18:35;;;;;;;1.70;1.50;;;1.40;98.20;;;;;;5028921;28;20490;-75
2022/12/11 01:21:06;;;;;;;1.70;1.60;;;1.40;98.20;;;;;;5004216;28;20590;-73
2022/12/11 01:23:33;;;;;;;1.70;1.60;;;1.40;98.20;;;;;;5018765;28;20669;-74
2022/12/11 01:26:05;;;;;;;1.77;1.67;;;1.40;98.20;;;;;;5002583;28;20459;-74
2022/12/11 01:28:34;;;;;;;1.63;1.50;;;1.40;98.20;;;;;;5022567;28;20487;-73
2022/12/11 01:31:01;;;;;;;1.73;1.63;;;1.40;98.20;;;;;;5003711;28;20501;-75
2022/12/11 01:33:28;;;;;;;1.70;1.50;;;1.40;98.20;;;;;;5039673;28;20468;-73
2022/12/11 01:35:55;;;;;;;1.70;1.50;;;1.40;98.20;;;;;;5022090;28;20459;-74
2022/12/11 01:38:21;;;;;;;1.70;1.47;;;1.40;98.20;;;;;;5041246;28;20842;-74
2022/12/11 01:40:50;;;;;;;2.10;1.90;;;1.50;98.20;;;;;;5021654;28;20456;-74
2022/12/11 01:43:16;;;;;;;1.80;1.60;;;1.50;98.20;;;;;;5032457;28;20479;-75
2022/12/11 01:45:47;;;;;;;1.70;1.50;;;1.50;98.20;;;;;;5019700;28;20463;-74
2022/12/11 01:48:18;;;;;;;1.80;1.70;;;1.50;98.20;;;;;;5007112;28;20475;-73
2022/12/11 01:50:49;;;;;;;1.70;1.50;;;1.50;98.20;;;;;;5012509;28;20492;-75
2022/12/11 01:53:20;;;;;;;1.70;1.60;;;1.50;98.20;;;;;;5020871;28;20475;-74
2022/12/11 01:55:50;;;;;;;1.70;1.50;;;1.50;98.20;;;;;;5007556;28;20452;-74
2022/12/11 01:58:20;;;;;;;1.70;1.60;;;1.50;98.20;;;;;;5046470;28;20494;-74
2022/12/11 02:00:50;;;;;;;1.63;1.50;;;1.40;98.20;;;;;;5017054;28;20455;-74
2022/12/11 02:03:17;;;;;;;1.63;1.50;;;1.40;98.20;;;;;;5036641;28;20464;-74
2022/12/11 02:05:44;;;;;;;1.80;1.70;;;1.40;98.20;;;;;;5011933;28;20470;-75
2022/12/11 02:08:11;;;;;;;1.70;1.50;;;1.40;98.20;;;;;;5015435;28;20484;-73
2022/12/11 02:10:56;;;;;;;1.67;1.50;;;1.40;98.20;;;;;;5016893;28;20484;-75
2022/12/11 02:13:31;;;;;;;1.67;1.50;;;1.40;98.20;;;;;;5011059;28;20474;-73
2022/12/11 02:16:05;;;;;;;1.70;1.60;;;1.40;98.20;;;;;;5005548;28;20454;-73
2022/12/11 02:18:38;;;;;;;2.33;2.13;;;1.40;98.20;;;;;;5032115;28;20487;-74
2022/12/11 02:21:10;;;;;;;1.70;1.50;;;1.40;98.20;;;;;;5009470;28;20600;-74
2022/12/11 02:24:04;;;;;;;1.63;1.50;;;1.40;98.20;;;;;;5030130;28;20491;-74
2022/12/11 02:26:57;;;;;;;1.70;1.40;;;1.40;98.20;;;;;;5019992;28;20848;-74
2022/12/11 02:29:34;;;;;;;1.67;1.50;;;1.40;98.20;;;;;;5020709;28;20476;-73
2022/12/11 02:32:04;;;;;;;1.70;1.50;;;1.40;98.20;;;;;;5026260;28;20553;-73
2022/12/11 02:34:37;;;;;;;1.70;1.50;;;1.40;98.20;;;;;;5020300;28;20468;-74
2022/12/11 02:37:08;;;;;;;1.67;1.50;;;1.40;98.20;;;;;;5024729;28;20510;-74
2022/12/11 02:39:40;;;;;;;1.63;1.50;;;1.40;98.20;;;;;;5024533;28;20490;-74
2022/12/11 02:42:09;;;;;;;1.70;1.50;;;1.40;98.20;;;;;;5026661;28;20480;-73
2022/12/11 02:44:39;;;;;;;1.70;1.60;;;1.40;98.20;;;;;;5018047;28;20460;-74
2022/12/11 02:47:11;;;;;;;1.67;1.40;;;1.50;98.20;;;;;;5024975;28;20470;-74
2022/12/11 02:49:40;;;;;;;1.67;1.50;;;1.50;98.20;;;;;;5012780;28;20490;-74
2022/12/11 02:52:10;;;;;;;1.63;1.50;;;1.50;98.20;;;;;;5020756;28;20478;-74
2022/12/11 02:54:39;;;;;;;1.70;1.50;;;1.50;98.20;;;;;;5022330;28;20470;-74
2022/12/11 02:57:11;;;;;;;1.70;1.60;;;1.50;98.20;;;;;;5009326;28;20499;-74
2022/12/11 02:59:42;;;;;;;1.73;1.60;;;1.50;98.20;;;;;;5022437;28;20493;-74
2022/12/11 03:02:11;;;;;;;1.70;1.50;;;1.50;98.20;;;;;;5029320;28;20513;-74
2022/12/11 03:04:39;;;;;;;1.70;1.50;;;1.50;98.20;;;;;;5024843;28;20472;-74
2022/12/11 03:07:11;;;;;;;1.90;1.80;;;1.50;98.20;;;;;;5024847;28;20482;-74
2022/12/11 03:09:39;;;;;;;1.70;1.50;;;1.50;98.20;;;;;;5023997;28;20540;-74
2022/12/11 03:12:07;;;;;;;1.67;1.50;;;1.50;98.20;;;;;;5032982;28;20482;-74
2022/12/11 03:14:34;;;;;;;1.70;1.50;;;1.50;98.20;;;;;;5028595;28;20474;-74
2022/12/11 03:17:07;;;;;;;1.70;1.60;;;1.50;98.20;;;;;;5025235;28;20497;-74
2022/12/11 03:19:40;;;;;;;1.70;1.60;;;1.50;98.20;;;;;;5030763;28;20976;-74
2022/12/11 03:22:11;;;;;;;1.70;1.60;;;1.50;98.20;;;;;;5021950;28;20478;-73
2022/12/11 03:24:46;;;;;;;1.70;1.50;;;1.50;98.20;;;;;;5021403;28;20542;-73
2022/12/11 03:27:24;;;;;;;1.63;1.40;;;1.50;98.20;;;;;;5016858;28;21885;-74
2022/12/11 03:29:58;;;;;;;1.63;1.50;;;1.50;98.20;;;;;;5023951;28;20840;-74
2022/12/11 03:32:31;;;;;;;1.70;1.60;;;1.50;98.20;;;;;;5024335;28;20553;-73
2022/12/11 03:35:03;;;;;;;1.80;1.70;;;1.50;98.20;;;;;;5024627;28;20463;-73
2022/12/11 03:37:35;;;;;;;1.77;1.67;;;1.50;98.20;;;;;;5030638;28;20478;-73
2022/12/11 03:40:06;;;;;;;1.60;1.50;;;1.50;98.20;;;;;;5019764;28;21146;-73
2022/12/11 03:42:34;;;;;;;1.60;1.50;;;1.50;98.20;;;;;;5030179;28;20532;-73
2022/12/11 03:45:04;;;;;;;1.70;1.50;;;1.50;98.20;;;;;;5027632;28;20459;-73
2022/12/11 03:47:34;;;;;;;1.70;1.60;;;1.50;98.20;;;;;;5033254;28;20520;-73
2022/12/11 03:50:04;;;;;;;1.67;1.57;;;1.50;98.20;;;;;;5017998;28;20476;-72
2022/12/11 03:52:32;;;;;;;1.70;1.60;;;1.50;98.20;;;;;;5029360;28;20485;-73
2022/12/11 03:55:02;;;;;;;1.70;1.57;;;1.50;98.20;;;;;;5016223;28;20466;-72
2022/12/11 03:57:33;;;;;;;1.70;1.60;;;1.50;98.20;;;;;;5026229;28;20904;-73
2022/12/11 04:00:03;;;;;;;1.70;1.60;;;1.50;98.20;;;;;;5018627;28;20498;-73
2022/12/11 04:02:31;;;;;;;1.70;1.50;;;1.40;98.20;;;;;;5028664;28;20474;-73
2022/12/11 04:04:58;;;;;;;1.70;1.50;;;1.40;98.20;;;;;;5018103;28;20863;-73
2022/12/11 04:07:28;;;;;;;1.70;1.60;;;1.40;98.20;;;;;;5023544;28;20489;-73
2022/12/11 04:09:55;;;;;;;1.70;1.50;;;1.40;98.20;;;;;;5019321;28;20479;-73
2022/12/11 04:12:21;;;;;;;1.80;1.70;;;1.40;98.20;;;;;;5018013;28;20474;-73
2022/12/11 04:15:03;;;;;;;1.70;1.50;;;1.40;98.20;;;;;;5018151;28;20981;-73
2022/12/11 04:25:48;;;;;;;1.80;1.70;;;1.40;98.20;;;;;;5008812;28;20514;-73
2022/12/11 04:28:15;;;;;;;1.83;1.73;;;1.40;98.20;;;;;;5039297;28;20856;-72
2022/12/11 04:30:48;;;;;;;1.63;1.50;;;1.40;98.20;;;;;;5020435;28;20528;-73
2022/12/11 04:33:16;;;;;;;1.70;1.60;;;1.40;98.20;;;;;;5004570;28;20552;-73
2022/12/11 04:35:43;;;;;;;1.77;1.67;;;1.40;98.20;;;;;;5015141;28;20696;-73
2022/12/11 04:38:10;;;;;;;1.70;1.60;;;1.40;98.20;;;;;;5028527;28;20525;-73
2022/12/11 04:40:39;;;;;;;1.67;1.40;;;1.40;98.20;;;;;;5016463;28;20452;-73
2022/12/11 04:43:06;;;;;;;1.70;1.60;;;1.40;98.20;;;;;;5029626;28;20858;-73
2022/12/11 04:45:33;;;;;;;1.70;1.60;;;1.40;98.20;;;;;;5017008;28;20459;-73
2022/12/11 04:48:00;;;;;;;1.67;1.50;;;1.40;98.20;;;;;;5029562;28;20896;-73
2022/12/11 04:50:28;;;;;;;1.70;1.50;;;1.40;98.20;;;;;;5016336;28;20782;-73
2022/12/11 04:52:55;;;;;;;1.70;1.50;;;1.40;98.20;;;;;;5030759;28;20478;-73
2022/12/11 04:55:22;;;;;;;1.70;1.60;;;1.40;98.20;;;;;;5020628;28;20995;-72
2022/12/11 04:57:49;;;;;;;1.70;1.60;;;1.40;98.20;;;;;;5030526;28;20962;-73
2022/12/11 05:00:16;;;;;;;1.90;1.80;;;1.40;98.20;;;;;;5019403;28;20491;-73
2022/12/11 05:02:43;;;;;;;1.70;1.60;;;1.40;98.20;;;;;;5019900;28;20483;-73
2022/12/11 05:05:11;;;;;;;1.70;1.60;;;1.40;98.20;;;;;;5013293;28;20496;-73
2022/12/11 05:07:40;;;;;;;1.70;1.50;;;1.40;98.20;;;;;;5028360;28;20489;-73
2022/12/11 05:10:08;;;;;;;1.70;1.50;;;1.40;98.20;;;;;;5015026;28;20494;-73
2022/12/11 05:12:35;;;;;;;2.10;1.90;;;1.40;98.20;;;;;;5031319;28;21003;-73
2022/12/11 05:15:02;;;;;;;1.70;1.60;;;1.40;98.20;;;;;;5018087;28;20769;-72
2022/12/11 05:17:31;;;;;;;8.00;7.60;;;1.30;98.20;;;;;;5024466;28;20477;-73
2022/12/11 05:19:57;;;;;;;1.70;1.60;;;1.30;98.20;;;;;;5020384;28;20956;-73
2022/12/11 05:22:24;;;;;;;1.70;1.60;;;1.30;98.20;;;;;;5021067;28;20979;-73
2022/12/11 05:24:52;;;;;;;1.70;1.50;;;1.30;98.20;;;;;;5020668;28;20518;-73
2022/12/11 05:27:19;;;;;;;1.70;1.60;;;1.40;98.20;;;;;;5024304;28;20482;-73
2022/12/11 05:29:46;;;;;;;1.83;1.73;;;1.40;98.20;;;;;;5022703;28;20490;-73
2022/12/11 05:32:13;;;;;;;1.70;1.50;;;1.30;98.20;;;;;;5026908;28;20641;-73
2022/12/11 05:34:40;;;;;;;1.70;1.50;;;1.30;98.20;;;;;;5025917;28;20467;-72
2022/12/11 05:37:06;;;;;;;1.70;1.53;;;1.30;98.20;;;;;;5022786;28;20474;-73
2022/12/11 05:39:37;;;;;;;1.70;1.57;;;1.30;98.20;;;;;;5023433;28;20491;-73
2022/12/11 05:42:05;;;;;;;1.70;1.50;;;1.30;98.20;;;;;;5021912;28;20525;-73
2022/12/11 05:44:32;;;;;;;1.70;1.57;;;1.30;98.20;;;;;;5027510;28;20466;-73
2022/12/11 05:46:59;;;;;;;1.63;1.50;;;1.30;98.20;;;;;;5018171;28;20516;-72
2022/12/11 05:49:26;;;;;;;1.70;1.50;;;1.30;98.20;;;;;;5027011;28;20484;-73
2022/12/11 05:51:52;;;;;;;1.70;1.50;;;1.30;98.20;;;;;;5015698;28;20671;-73
2022/12/11 05:54:20;;;;;;;1.63;1.50;;;1.30;98.20;;;;;;5027504;28;20459;-73
2022/12/11 05:56:49;;;;;;;1.80;1.70;;;1.30;98.20;;;;;;5018708;28;20545;-73
2022/12/11 05:59:18;;;;;;;1.70;1.50;;;1.30;98.20;;;;;;5027929;28;20585;-73
2022/12/11 06:01:45;;;;;;;1.70;1.50;;;1.30;98.20;;;;;;5019252;28;21889;-73
2022/12/11 06:04:13;;;;;;;1.70;1.50;;;1.30;98.20;;;;;;5028838;28;20869;-73
2022/12/11 06:06:40;;;;;;;1.63;1.50;;;1.30;98.20;;;;;;5017676;28;20491;-73
2022/12/11 06:09:09;;;;;;;1.70;1.50;;;1.30;98.20;;;;;;5030511;28;20483;-73
2022/12/11 06:11:36;;;;;;;1.80;1.70;;;1.30;98.20;;;;;;5017551;28;21036;-73
2022/12/11 06:14:04;;;;;;;1.70;1.60;;;1.30;98.20;;;;;;5035019;28;20466;-73
2022/12/11 06:16:34;;;;;;;1.70;1.60;;;1.30;98.20;;;;;;5020907;28;20486;-73
2022/12/11 06:19:01;;;;;;;1.70;1.50;;;1.30;98.20;;;;;;5033727;28;20481;-73
2022/12/11 06:21:33;;;;;;;1.70;1.50;;;1.30;98.20;;;;;;5016346;28;20474;-72
2022/12/11 06:24:01;;;;;;;1.70;1.50;;;1.30;98.20;;;;;;5034997;28;20463;-73
2022/12/11 06:26:29;;;;;;;1.80;1.70;;;1.30;98.20;;;;;;5016994;28;20478;-72
2022/12/11 06:28:55;;;;;;;1.70;1.50;;;1.20;98.20;;;;;;5033396;28;20483;-72
2022/12/11 06:31:22;;;;;;;1.70;1.50;;;1.20;98.20;;;;;;5011210;28;20533;-72
2022/12/11 06:33:50;;;;;;;1.70;1.60;;;1.20;98.20;;;;;;5035533;28;20473;-73
2022/12/11 06:36:19;;;;;;;1.63;1.50;;;1.20;98.20;;;;;;5017756;28;20477;-73
2022/12/11 06:38:47;;;;;;;1.63;1.50;;;1.20;98.20;;;;;;5036530;28;20494;-73
2022/12/11 06:41:14;;;;;;;1.73;1.63;;;1.20;98.20;;;;;;5013563;28;20494;-73
2022/12/11 06:43:42;;;;;;;1.73;1.63;;;1.20;98.20;;;;;;5034911;28;20467;-73
2022/12/11 06:46:11;;;;;;;1.70;1.50;;;1.20;98.20;;;;;;5015555;28;21030;-73
2022/12/11 06:48:38;;;;;;;1.70;1.50;;;1.20;98.20;;;;;;5035107;28;20483;-73
2022/12/11 06:51:07;;;;;;;1.63;1.40;;;1.20;98.20;;;;;;5013360;28;20489;-72
2022/12/11 06:53:35;;;;;;;1.70;1.50;;;1.20;98.20;;;;;;5037309;28;20464;-73
2022/12/11 06:56:05;;;;;;;1.67;1.50;;;1.20;98.20;;;;;;5011106;28;21038;-73
2022/12/11 06:58:34;;;;;;;1.70;1.50;;;1.30;98.20;;;;;;5035833;28;20869;-73
2022/12/11 07:01:01;;;;;;;1.70;1.60;;;1.20;98.20;;;;;;5009531;28;20831;-73
2022/12/11 07:03:28;;;;;;;1.70;1.50;;;1.30;98.20;;;;;;5036669;28;20456;-73
2022/12/11 07:06:00;;;;;;;1.70;1.60;;;1.30;98.20;;;;;;5011137;28;20481;-73
2022/12/11 07:08:33;;;;;;;1.83;1.73;;;1.20;98.20;;;;;;5034751;28;20861;-72
2022/12/11 07:11:03;;;;;;;1.70;1.60;;;1.20;98.20;;;;;;5007616;28;20463;-73
2022/12/11 07:13:36;;;;;;;1.70;1.50;;;1.20;98.20;;;;;;5025341;28;20850;-72
2022/12/11 07:16:09;;;;;;;1.70;1.60;;;1.20;98.20;;;;;;5008928;28;20525;-72
2022/12/11 07:18:38;;;;;;;1.70;1.60;;;1.20;98.20;;;;;;5032158;28;20484;-72
2022/12/11 07:21:05;;;;;;;3.47;3.27;;;1.20;98.20;;;;;;5014298;28;20566;-72
2022/12/11 07:23:34;;;;;;;1.70;1.60;;;1.20;98.20;;;;;;5036942;28;20819;-72
2022/12/11 07:26:07;;;;;;;1.63;1.50;;;1.20;98.20;;;;;;5008985;28;20456;-72
2022/12/11 07:28:35;;;;;;;1.67;1.50;;;1.20;98.20;;;;;;5037163;28;20511;-72
2022/12/11 07:31:05;;;;;;;1.70;1.50;;;1.20;98.20;;;;;;5011707;28;20822;-72
2022/12/11 07:33:32;;;;;;;1.67;1.50;;;1.20;98.20;;;;;;5035607;28;20464;-72
2022/12/11 07:36:02;;;;;;;1.63;1.50;;;1.20;98.20;;;;;;5007638;28;20549;-72
2022/12/11 07:38:28;;;;;;;1.70;1.50;;;1.20;98.20;;;;;;5034758;28;20808;-72
2022/12/11 07:41:01;;;;;;;1.70;1.50;;;1.30;98.20;;;;;;5009847;28;20462;-72
2022/12/11 07:43:27;;;;;;;1.63;1.43;;;1.30;98.20;;;;;;5030370;28;20471;-72
2022/12/11 07:45:54;;;;;;;1.70;1.50;;;1.30;98.20;;;;;;5010274;28;20460;-72
2022/12/11 07:48:21;;;;;;;1.67;1.47;;;1.30;98.20;;;;;;5038823;28;20466;-72
2022/12/11 07:50:49;;;;;;;1.73;1.63;;;1.30;98.20;;;;;;5017048;28;20468;-72
2022/12/11 07:53:16;;;;;;;1.70;1.60;;;1.30;98.20;;;;;;5040681;28;20488;-72
2022/12/11 07:55:43;;;;;;;1.67;1.50;;;1.30;98.20;;;;;;5015436;28;20486;-72
2022/12/11 07:58:11;;;;;;;1.70;1.50;;;1.30;98.20;;;;;;5027628;28;20483;-72
2022/12/11 08:00:38;;;;;;;1.60;1.43;;;1.30;98.20;;;;;;5017599;28;20479;-72
2022/12/11 08:03:05;;;;;;;1.60;1.40;;;1.30;98.20;;;;;;5020045;28;20478;-72
2022/12/11 08:05:31;;;;;;;1.70;1.50;;;1.30;98.20;;;;;;5015856;28;20572;-72
2022/12/11 08:07:58;;;;;;;1.70;1.50;;;1.30;98.20;;;;;;5027053;28;20485;-72
2022/12/11 08:10:25;;;;;;;1.70;1.50;;;1.40;98.20;;;;;;5011226;28;21035;-73
2022/12/11 08:12:52;;;;;;;1.67;1.40;;;1.40;98.20;;;;;;5026280;28;20563;-72
2022/12/11 08:15:21;;;;;;;1.70;1.50;;;1.50;98.20;;;;;;5011844;28;20508;-72
2022/12/11 08:17:47;;;;;;;1.70;1.60;;;1.50;98.20;;;;;;5025035;28;20490;-72
2022/12/11 08:20:14;;;;;;;1.70;1.60;;;1.50;98.20;;;;;;5016113;28;20509;-72
2022/12/11 08:22:41;;;;;;;1.70;1.60;;;1.60;98.20;;;;;;5024923;28;20563;-73
2022/12/11 08:25:08;;;;;;;1.70;1.50;;;1.60;98.20;;;;;;5014000;28;20735;-72
2022/12/11 08:27:35;;;;;;;1.70;1.50;;;1.60;98.20;;;;;;5021185;28;20486;-73
2022/12/11 08:30:02;;;;;;;1.63;1.43;;;1.60;98.20;;;;;;5020813;28;20487;-72
2022/12/11 08:32:30;;;;;;;1.70;1.50;;;1.60;98.20;;;;;;5019815;28;20474;-72
2022/12/11 08:34:57;;;;;;;1.60;1.50;;;1.60;98.20;;;;;;5021087;28;20470;-72
2022/12/11 08:37:23;;;;;;;1.70;1.60;;;1.60;98.20;;;;;;5016140;28;20483;-72
2022/12/11 08:39:50;;;;;;;1.70;1.50;;;1.60;98.20;;;;;;5020959;28;20479;-73
2022/12/11 08:42:17;;;;;;;1.70;1.50;;;1.60;98.20;;;;;;5020331;28;20992;-73
2022/12/11 08:44:44;;;;;;;1.70;1.60;;;1.60;98.20;;;;;;5020095;28;20464;-74
2022/12/11 08:47:11;;;;;;;1.70;1.50;;;1.60;98.20;;;;;;5003553;28;20483;-75
2022/12/11 08:49:39;;;;;;;3.10;2.90;;;1.60;98.20;;;;;;5013048;28;20488;-73
2022/12/11 08:52:06;;;;;;;1.60;1.50;;;1.60;98.20;;;;;;5018399;28;20546;-73
2022/12/11 08:54:33;;;;;;;1.70;1.60;;;1.60;98.20;;;;;;5021295;28;20472;-73
2022/12/11 08:57:00;;;;;;;1.70;1.50;;;1.60;98.20;;;;;;5008111;28;20490;-73
2022/12/11 08:59:27;;;;;;;1.70;1.50;;;1.60;98.20;;;;;;5012981;28;20491;-73
2022/12/11 09:01:55;;;;;;;1.70;1.60;;;1.60;98.20;;;;;;5003267;28;20483;-73
2022/12/11 09:04:22;;;;;;;1.70;1.60;;;1.60;98.20;;;;;;5013222;28;20817;-72
2022/12/11 09:06:50;;;;;;;1.77;1.67;;;1.60;98.20;;;;;;5013765;28;20616;-73
2022/12/11 09:09:17;;;;;;;1.70;1.50;;;1.60;98.20;;;;;;5020154;28;20484;-72
2022/12/11 09:11:44;;;;;;;1.60;1.40;;;1.60;98.20;;;;;;5006638;28;21082;-73
2022/12/11 09:14:12;;;;;;;1.67;1.40;;;1.70;98.20;;;;;;5019045;28;20468;-72
2022/12/11 09:16:40;;;;;;;1.70;1.60;;;1.70;98.20;;;;;;5005900;28;20486;-73
2022/12/11 09:19:08;;;;;;;1.70;1.50;;;1.70;98.20;;;;;;5017204;28;20483;-73
2022/12/11 09:21:35;;;;;;;1.70;1.50;;;1.70;98.20;;;;;;5007925;28;20478;-73
2022/12/11 09:24:03;;;;;;;1.70;1.53;;;1.70;98.20;;;;;;5021803;28;20467;-73
2022/12/11 09:26:30;;;;;;;1.70;1.60;;;1.70;98.20;;;;;;5010123;28;20481;-73
2022/12/11 09:28:57;;;;;;;4.63;4.27;;;1.70;98.20;;;;;;5023278;28;20490;-73
2022/12/11 09:31:27;;;;;;;1.70;1.50;;;1.80;98.20;;;;;;5008451;28;20485;-73
2022/12/11 09:33:56;;;;;;;1.80;1.70;;;1.80;98.20;;;;;;5027145;28;20486;-73
2022/12/11 09:36:24;;;;;;;1.70;1.60;;;1.80;98.20;;;;;;5006383;28;20489;-71
2022/12/11 09:38:51;;;;;;;1.67;1.50;;;1.80;98.20;;;;;;5017971;28;21005;-71
2022/12/11 09:41:38;;;;;;;1.63;1.47;;;1.80;98.20;;;;;;5004068;28;20483;-71
2022/12/11 09:44:16;;;;;;;1.70;1.60;;;1.80;98.20;;;;;;5014661;28;20471;-72
2022/12/11 09:46:44;;;;;;;1.70;1.50;;;1.90;98.20;;;;;;5008063;28;20485;-71
2022/12/11 09:49:26;;;;;;;1.60;1.50;;;1.90;98.20;;;;;;5018330;28;20486;-72
2022/12/11 09:52:01;;;;;;;1.67;1.50;;;1.90;98.20;;;;;;5011917;28;20484;-72
2022/12/11 09:54:28;;;;;;;1.70;1.50;;;2.00;98.20;;;;;;5020453;28;20466;-72
2022/12/11 09:57:09;;;;;;;1.67;1.50;;;2.00;98.20;;;;;;5011397;28;20489;-72
2022/12/11 09:59:48;;;;;;;1.67;1.50;;;2.00;98.20;;;;;;5016845;28;20487;-72
2022/12/11 10:02:27;;;;;;;1.67;1.50;;;2.00;98.20;;;;;;5016042;28;20474;-72
2022/12/11 10:05:01;;;;;;;1.70;1.50;;;2.10;98.20;;;;;;5015823;28;20478;-72
2022/12/11 10:07:36;;;;;;;1.70;1.50;;;2.10;98.20;;;;;;5005568;28;20490;-72
2022/12/11 10:10:11;;;;;;;1.70;1.50;;;2.10;98.20;;;;;;5013871;28;20478;-72
2022/12/11 10:12:47;;;;;;;1.67;1.40;;;2.10;98.20;;;;;;5007996;28;20471;-71
2022/12/11 10:15:24;;;;;;;1.63;1.40;;;2.10;98.20;;;;;;5011950;28;20468;-72
2022/12/11 10:17:54;;;;;;;1.70;1.50;;;2.20;98.20;;;;;;5007661;28;20486;-72
2022/12/11 10:20:26;;;;;;;1.70;1.50;;;2.10;98.20;;;;;;5006486;28;21146;-72
2022/12/11 10:22:54;;;;;;;1.70;1.50;;;2.10;98.20;;;;;;5006529;28;20479;-72
2022/12/11 10:25:27;;;;;;;1.67;1.47;;;2.10;98.20;;;;;;5014212;28;20467;-72
2022/12/11 10:27:56;;;;;;;1.70;1.50;;;2.10;98.20;;;;;;5019716;28;20481;-72
2022/12/11 10:30:25;;;;;;;1.70;1.50;;;2.10;98.20;;;;;;5011147;28;20486;-72
2022/12/11 10:32:58;;;;;;;1.70;1.50;;;2.10;98.20;;;;;;5006662;28;20541;-72
2022/12/11 10:35:31;;;;;;;1.70;1.50;;;2.10;98.20;;;;;;5013451;28;20467;-72
2022/12/11 10:38:10;;;;;;;1.70;1.50;;;2.10;98.20;;;;;;5007837;28;20946;-72
2022/12/11 10:40:39;;;;;;;1.70;1.50;;;2.10;98.20;;;;;;5016449;28;20877;-73
2022/12/11 10:43:11;;;;;;;1.63;1.50;;;2.10;98.20;;;;;;5011482;28;20485;-73
2022/12/11 10:45:37;;;;;;;1.67;1.40;;;2.10;98.20;;;;;;5019968;28;20459;-73
2022/12/11 10:48:06;;;;;;;1.70;1.60;;;2.10;98.20;;;;;;5010830;28;20778;-73
2022/12/11 10:50:33;;;;;;;1.63;1.43;;;2.20;98.20;;;;;;5010148;28;20487;-73
2022/12/11 10:53:00;;;;;;;1.70;1.50;;;2.20;98.20;;;;;;5008856;28;20914;-73
2022/12/11 10:55:30;;;;;;;1.60;1.40;;;2.20;98.20;;;;;;5012271;28;20469;-73
2022/12/11 10:58:00;;;;;;;1.63;1.43;;;2.20;98.20;;;;;;5026243;28;20486;-73
2022/12/11 11:00:33;;;;;;;1.63;1.50;;;2.20;98.20;;;;;;5017544;28;21116;-73
2022/12/11 11:03:01;;;;;;;1.90;1.80;;;2.20;98.20;;;;;;5021335;28;20522;-72
2022/12/11 11:05:31;;;;;;;1.60;1.40;;;2.20;98.20;;;;;;5009680;28;20463;-73
2022/12/11 11:08:20;;;;;;;1.60;1.50;;;2.20;98.20;;;;;;5024675;28;20547;-73
2022/12/11 11:10:51;;;;;;;1.60;1.47;;;2.10;98.20;;;;;;5007666;28;20474;-73
2022/12/11 11:13:20;;;;;;;1.67;1.50;;;2.20;98.20;;;;;;5021107;28;20502;-73
2022/12/11 11:15:52;;;;;;;1.67;1.40;;;2.20;98.20;;;;;;5010195;28;20558;-72
2022/12/11 11:18:25;;;;;;;1.70;1.50;;;2.20;98.20;;;;;;5032200;28;20603;-73
2022/12/11 11:20:52;;;;;;;1.80;1.70;;;2.20;98.20;;;;;;5004988;28;20570;-73
2022/12/11 11:23:21;;;;;;;1.67;1.50;;;2.20;98.20;;;;;;5016843;28;20456;-73
2022/12/11 11:25:54;;;;;;;1.67;1.43;;;2.20;98.20;;;;;;5004946;28;20799;-73
2022/12/11 11:28:25;;;;;;;2.30;2.10;;;2.10;98.20;;;;;;5028166;28;20641;-73
2022/12/11 11:31:02;;;;;;;1.70;1.60;;;2.20;98.20;;;;;;5002624;28;20471;-73
2022/12/11 11:33:34;;;;;;;1.67;1.40;;;2.10;98.20;;;;;;5028403;28;20708;-73
2022/12/11 11:36:02;;;;;;;1.67;1.50;;;2.20;98.20;;;;;;5012971;28;20494;-73
2022/12/11 11:38:33;;;;;;;1.63;1.40;;;2.20;98.20;;;;;;5029287;28;20468;-72
2022/12/11 11:41:09;;;;;;;1.63;1.50;;;2.10;98.20;;;;;;5002974;28;20499;-73
2022/12/11 11:43:43;;;;;;;1.70;1.60;;;2.20;98.20;;;;;;5029578;28;21635;-74
2022/12/11 11:46:17;;;;;;;1.70;1.60;;;2.20;98.20;;;;;;5005329;28;21073;-74
2022/12/11 11:48:53;;;;;;;2.93;2.73;;;2.20;98.20;;;;;;5020882;28;20487;-72
2022/12/11 11:51:24;;;;;;;1.70;1.47;;;2.20;98.20;;;;;;5002872;28;20478;-71
2022/12/11 11:53:55;;;;;;;1.63;1.40;;;2.20;98.20;;;;;;5015705;28;20488;-73
2022/12/11 11:56:25;;;;;;;1.70;1.53;;;2.30;98.20;;;;;;5005344;28;20488;-72
2022/12/11 11:59:11;;;;;;;1.63;1.40;;;2.30;98.20;;;;;;5019976;28;20482;-73
2022/12/11 12:01:41;;;;;;;1.67;1.40;;;2.30;98.20;;;;;;5002181;28;21015;-73
2022/12/11 12:04:09;;;;;;;1.70;1.53;;;2.30;98.20;;;;;;5016894;28;20935;-72
2022/12/11 12:06:49;;;;;;;1.70;1.40;;;2.30;98.20;;;;;;5008304;28;20520;-73
2022/12/11 12:09:27;;;;;;;1.67;1.50;;;2.30;98.20;;;;;;5019570;28;20880;-73
2022/12/11 12:12:11;;;;;;;1.67;1.40;;;2.40;98.20;;;;;;5011617;28;21143;-73
2022/12/11 12:14:50;;;;;;;1.70;1.50;;;2.40;98.20;;;;;;5014595;28;20985;-72
2022/12/11 12:17:23;;;;;;;1.70;1.50;;;2.30;98.20;;;;;;5006873;28;20479;-72
2022/12/11 12:19:58;;;;;;;1.63;1.40;;;2.30;98.20;;;;;;5013382;28;20905;-71
2022/12/11 12:22:40;;;;;;;1.63;1.43;;;2.30;98.20;;;;;;5004688;28;20490;-72
2022/12/11 12:25:18;;;;;;;1.63;1.40;;;2.30;98.20;;;;;;5009685;28;20468;-73
2022/12/11 12:27:53;;;;;;;1.70;1.50;;;2.30;98.20;;;;;;5015390;28;20578;-73
2022/12/11 12:30:20;;;;;;;1.80;1.70;;;2.30;98.20;;;;;;5014652;28;20484;-72
2022/12/11 12:32:58;;;;;;;1.87;1.77;;;2.30;98.20;;;;;;5006703;28;21484;-73
2022/12/11 12:35:35;;;;;;;1.70;1.50;;;2.30;98.20;;;;;;5016516;28;20467;-73
2022/12/11 12:38:10;;;;;;;1.67;1.40;;;2.30;98.20;;;;;;5019664;28;20482;-73
2022/12/11 12:40:48;;;;;;;1.60;1.40;;;2.30;98.20;;;;;;5010186;28;20507;-73
2022/12/11 12:43:31;;;;;;;1.70;1.50;;;2.20;98.20;;;;;;5002585;28;20498;-73
2022/12/11 12:46:10;;;;;;;1.70;1.57;;;2.20;98.20;;;;;;5006612;28;20562;-73
2022/12/11 12:48:39;;;;;;;1.67;1.40;;;2.20;98.20;;;;;;5023364;28;21140;-73
2022/12/11 12:51:06;;;;;;;1.70;1.50;;;2.20;98.20;;;;;;4999218;28;22836;-72
2022/12/11 12:53:36;;;;;;;1.70;1.60;;;2.20;98.20;;;;;;5015553;28;20492;-72
2022/12/11 12:56:05;;;;;;;1.67;1.40;;;2.20;98.20;;;;;;5003369;28;20490;-73
2022/12/11 12:58:41;;;;;;;1.70;1.53;;;2.30;98.20;;;;;;5018453;28;20485;-73
2022/12/11 13:01:10;;;;;;;1.67;1.40;;;2.30;98.20;;;;;;5001037;28;21385;-74
2022/12/11 13:03:51;;;;;;;1.70;1.40;;;2.30;98.20;;;;;;5014125;28;20488;-74
2022/12/11 13:06:29;;;;;;;1.67;1.40;;;2.30;98.20;;;;;;5007856;28;20478;-73
2022/12/11 13:08:56;;;;;;;1.70;1.60;;;2.30;98.20;;;;;;5017335;28;20576;-73
2022/12/11 13:11:34;;;;;;;1.83;1.73;;;2.30;98.20;;;;;;5000993;28;20478;-72
2022/12/11 13:14:04;;;;;;;1.70;1.50;;;2.30;98.20;;;;;;5015060;28;20483;-74
2022/12/11 13:16:36;;;;;;;1.70;1.40;;;2.30;98.20;;;;;;5003680;28;20515;-73
2022/12/11 13:19:16;;;;;;;1.70;1.40;;;2.40;98.20;;;;;;5016421;28;20589;-73
2022/12/11 13:21:54;;;;;;;1.63;1.40;;;2.40;98.20;;;;;;5003173;28;20486;-73